RJAZ(METAR)
10/20 16:00
RJAZ 200700Z 04007G17KT CAVOK 19/10 Q1022 RMK A3018=
戻る
トップページへ戻る
IMOC Co,.Ltd.